Main page
METAR-TAF:

METAR-TAF

Airports :

Douglas–Charles Airport

Marigot, Dominica

latitude: 15-32N, longitude: 061-18W, elevation: 13 m

Current weather observation

The report was made 10 hours and 37 minutes ago, at 23:00 UTC
Wind 6 kt from the East/Southeast
Temperature 28°C
Humidity 79%
Pressure 1013 hPa
Visibility 10 km or more
Few clouds at a height of 2300 ft

METAR: TDPD 202300Z 12006KT 9999 FEW023 28/24 Q1013

Time: 05:37 (09:37 UTC)

Forecast

The report was made 4 hours and 37 minutes ago, at 05:00 UTC
Forecast valid from 21 at 06 UTC to 22 at 06 UTC
Wind 6 kt from the East/Southeast
Visibility 10 km or more
Scattered clouds at a height of 1800 ft

TAF: TDPD 210500Z 2106/2206 12006KT 9999 SCT018

Weather observations and forecasts of more than 4000 airports (METAR and TAF reports).

The available stations are represented by yellow and red dots on the map.

Hover mouse over dot to see the name of the station.

Then click to see weather observations and forecasts.

To change the map : click on the green buttons with a black cross to zoom in, on the green button with a dash to zoom out, or on the green arrows for adjacent maps.


METAR-TAF: